Startpagina
METAR-TAF:

METAR-TAF

Vliegvelden :

Awg-1, Nederland

Productieplatform

breedte: 53-29-30N, lengte: 5-56-30E, hoogte: 33 m

Actueel weer

Dit bericht is 36 minuten geleden gemaakt, om 05:25 UTC
Wind 19 kt uit het zuiden
Temperatuur 13°C
Vochtigheid 100%
Druk 1017 hPa
Zicht: 2300 m
Weinig wolken op 100 ft
Verspreide wolken op 300 ft
Gebroken wolken op 500 ft
lichte regen, motregen

METAR: EHMA 240525Z AUTO 19019KT 2300 -RADZ FEW001 SCT003 BKN005 13/13 Q1017

Tijdstip: 08:01 (06:01 UTC)


TAF: ontbreekt

Waarnemingen en weersverwachtingen van meer dan 4000 vliegvelden (METAR en TAF).

De beschikbare stations zijn de gele en rode punten op de kaart.

Ga met uw muis naar het station om de naam te zien.

Klik dan om waarnemingen en weersverwachtingen te zien.

kaart wijzigen: klik op de groene knoppen met een zwart kruis om in te zoomen, op de groene knop met een streepje om uit te zoomen of op de groene pijlen voor aangrenzende kaarten.


METAR-TAF: